Wetterdaten: Woche 11.06.12 - 17.06.12 (KW24)
Datum Zeit Temperatur Luftfeuchte Luftdruck Niederschlag Windrichtung Sonnenschein Solar Wind
11.06.2012 00:00 12,1 C 94 % 1005,4 hPa 0,0 l/m N 0,00 h 0 W/m 0,1 km/h (0 Bft)
11.06.2012 01:00 12,1 C 95 % 1004,8 hPa 0,0 l/m N 0,00 h 0 W/m 0,5 km/h (0 Bft)
11.06.2012 02:00 11,9 C 96 % 1004,3 hPa 0,0 l/m N 0,00 h 0 W/m 0,7 km/h (0 Bft)
11.06.2012 03:00 11,7 C 96 % 1003,8 hPa 0,0 l/m N 0,00 h 0 W/m 0,1 km/h (0 Bft)
11.06.2012 04:00 11,5 C 97 % 1003,8 hPa 0,0 l/m N 0,00 h 0 W/m 0,4 km/h (0 Bft)
11.06.2012 05:00 11,6 C 97 % 1003,8 hPa 0,0 l/m N 0,00 h 9 W/m 0,4 km/h (0 Bft)
11.06.2012 06:00 11,6 C 98 % 1004,0 hPa 0,6 l/m N 0,00 h 18 W/m 1,7 km/h (1 Bft)
11.06.2012 07:00 11,9 C 98 % 1003,7 hPa 1,4 l/m O 0,00 h 36 W/m 2,7 km/h (1 Bft)
11.06.2012 08:00 12,0 C 98 % 1004,0 hPa 0,4 l/m SO 0,00 h 43 W/m 5,3 km/h (1 Bft)
11.06.2012 09:00 12,5 C 97 % 1004,0 hPa 0,0 l/m W-SW 0,00 h 181 W/m 7,0 km/h (2 Bft)
11.06.2012 10:00 14,2 C 90 % 1003,7 hPa 0,0 l/m W 0,25 h 325 W/m 17,0 km/h (3 Bft)
11.06.2012 11:00 15,8 C 81 % 1003,5 hPa 0,0 l/m W-SW 0,50 h 534 W/m 22,5 km/h (4 Bft)
11.06.2012 12:00 16,2 C 79 % 1003,3 hPa 0,0 l/m W-SW 0,67 h 747 W/m 22,1 km/h (4 Bft)
11.06.2012 13:00 17,4 C 69 % 1002,7 hPa 0,0 l/m SW 0,33 h 516 W/m 24,4 km/h (4 Bft)
11.06.2012 14:00 16,1 C 72 % 1002,7 hPa 0,0 l/m W 0,00 h 176 W/m 21,3 km/h (4 Bft)
11.06.2012 15:00 16,5 C 73 % 1002,7 hPa 0,2 l/m W-SW 0,58 h 673 W/m 21,4 km/h (4 Bft)
11.06.2012 16:00 17,9 C 63 % 1002,3 hPa 0,0 l/m W-SW 0,42 h 443 W/m 20,9 km/h (4 Bft)
11.06.2012 17:00 17,8 C 64 % 1002,3 hPa 0,0 l/m W-SW 0,83 h 530 W/m 21,4 km/h (4 Bft)
11.06.2012 18:00 17,3 C 67 % 1001,9 hPa 0,0 l/m SW 0,33 h 208 W/m 17,3 km/h (3 Bft)
11.06.2012 19:00 15,9 C 72 % 1002,2 hPa 0,0 l/m W-SW 0,17 h 90 W/m 14,9 km/h (3 Bft)
11.06.2012 20:00 15,3 C 80 % 1002,3 hPa 0,0 l/m SW 0,75 h 78 W/m 18,5 km/h (3 Bft)
11.06.2012 21:00 13,8 C 87 % 1002,6 hPa 0,0 l/m SW 0,17 h 11 W/m 16,1 km/h (3 Bft)
11.06.2012 22:00 13,0 C 86 % 1002,7 hPa 0,0 l/m SW 0,00 h 0 W/m 13,2 km/h (3 Bft)
11.06.2012 23:00 11,7 C 89 % 1002,4 hPa 0,0 l/m SW 0,00 h 0 W/m 4,9 km/h (1 Bft)
12.06.2012 00:00 10,7 C 93 % 1002,4 hPa 0,0 l/m SW 0,00 h 0 W/m 2,7 km/h (1 Bft)
12.06.2012 01:00 9,8 C 94 % 1002,1 hPa 0,0 l/m N 0,00 h 0 W/m 1,5 km/h (1 Bft)
12.06.2012 02:00 9,0 C 96 % 1001,7 hPa 0,0 l/m N 0,00 h 0 W/m 0,0 km/h (0 Bft)
12.06.2012 03:00 8,4 C 97 % 1001,3 hPa 0,0 l/m N 0,00 h 0 W/m 0,8 km/h (0 Bft)
12.06.2012 04:00 8,3 C 97 % 1000,9 hPa 0,0 l/m W-SW 0,00 h 0 W/m 1,1 km/h (0 Bft)
12.06.2012 05:00 8,5 C 98 % 1000,3 hPa 0,0 l/m W-NW 0,00 h 9 W/m 3,3 km/h (1 Bft)
12.06.2012 06:00 9,2 C 97 % 1000,4 hPa 0,0 l/m W 0,00 h 24 W/m 2,3 km/h (1 Bft)
12.06.2012 07:00 10,0 C 96 % 1000,6 hPa 0,0 l/m N 0,00 h 25 W/m 1,5 km/h (1 Bft)
12.06.2012 08:00 10,6 C 96 % 1000,9 hPa 0,2 l/m N 0,00 h 68 W/m 0,3 km/h (0 Bft)
12.06.2012 09:00 11,5 C 95 % 1001,0 hPa 0,0 l/m W 0,00 h 78 W/m 3,9 km/h (1 Bft)
12.06.2012 10:00 11,6 C 96 % 1001,1 hPa 2,2 l/m S 0,00 h 60 W/m 6,1 km/h (2 Bft)
12.06.2012 11:00 11,4 C 97 % 1001,5 hPa 3,8 l/m W-NW 0,00 h 60 W/m 5,5 km/h (1 Bft)
12.06.2012 12:00 11,5 C 96 % 1001,8 hPa 0,8 l/m W-NW 0,00 h 139 W/m 10,7 km/h (2 Bft)
12.06.2012 13:00 11,7 C 97 % 1002,2 hPa 2,0 l/m W 0,00 h 93 W/m 7,2 km/h (2 Bft)
12.06.2012 14:00 11,8 C 97 % 1002,7 hPa 1,6 l/m W-SW 0,00 h 125 W/m 9,5 km/h (2 Bft)
12.06.2012 15:00 11,6 C 97 % 1003,2 hPa 1,6 l/m W-SW 0,00 h 111 W/m 13,4 km/h (3 Bft)
12.06.2012 16:00 11,7 C 96 % 1003,8 hPa 0,4 l/m W-SW 0,00 h 126 W/m 16,6 km/h (3 Bft)
12.06.2012 17:00 11,8 C 96 % 1004,4 hPa 0,2 l/m W-SW 0,00 h 97 W/m 10,6 km/h (2 Bft)
12.06.2012 18:00 11,8 C 96 % 1004,8 hPa 0,4 l/m W-SW 0,00 h 76 W/m 10,2 km/h (2 Bft)
12.06.2012 19:00 11,7 C 97 % 1005,4 hPa 0,2 l/m W-SW 0,00 h 44 W/m 6,5 km/h (2 Bft)
12.06.2012 20:00 11,3 C 97 % 1006,1 hPa 0,6 l/m W-SW 0,00 h 20 W/m 9,5 km/h (2 Bft)
12.06.2012 21:00 11,0 C 97 % 1006,9 hPa 0,2 l/m W-SW 0,00 h 5 W/m 8,2 km/h (2 Bft)
12.06.2012 22:00 10,8 C 97 % 1007,7 hPa 0,4 l/m W-SW 0,00 h 0 W/m 11,2 km/h (2 Bft)
12.06.2012 23:00 10,7 C 97 % 1008,4 hPa 0,6 l/m W-SW 0,00 h 0 W/m 12,1 km/h (2 Bft)
13.06.2012 00:00 10,5 C 98 % 1008,9 hPa 1,2 l/m W-SW 0,00 h 0 W/m 9,5 km/h (2 Bft)
13.06.2012 01:00 10,3 C 98 % 1009,3 hPa 0,8 l/m W-SW 0,00 h 0 W/m 14,4 km/h (3 Bft)
13.06.2012 02:00 10,1 C 98 % 1009,6 hPa 1,4 l/m W-SW 0,00 h 0 W/m 16,0 km/h (3 Bft)
13.06.2012 03:00 9,9 C 98 % 1009,9 hPa 1,0 l/m W-SW 0,00 h 0 W/m 15,2 km/h (3 Bft)
13.06.2012 04:00 9,8 C 98 % 1010,1 hPa 0,4 l/m W-SW 0,00 h 0 W/m 14,6 km/h (3 Bft)
13.06.2012 05:00 9,8 C 98 % 1010,3 hPa 0,4 l/m SW 0,00 h 7 W/m 12,9 km/h (3 Bft)
13.06.2012 06:00 9,8 C 98 % 1010,6 hPa 0,0 l/m SW 0,00 h 29 W/m 10,7 km/h (2 Bft)
13.06.2012 07:00 10,2 C 98 % 1011,1 hPa 0,0 l/m W-SW 0,00 h 75 W/m 13,6 km/h (3 Bft)
13.06.2012 08:00 11,0 C 96 % 1011,7 hPa 0,0 l/m W-SW 0,00 h 113 W/m 13,7 km/h (3 Bft)
13.06.2012 09:00 12,1 C 91 % 1012,1 hPa 0,0 l/m W 0,58 h 387 W/m 16,6 km/h (3 Bft)
13.06.2012 10:00 13,4 C 85 % 1012,3 hPa 0,2 l/m W 0,42 h 477 W/m 18,6 km/h (3 Bft)
13.06.2012 11:00 14,3 C 81 % 1012,4 hPa 0,0 l/m W 0,25 h 424 W/m 20,5 km/h (4 Bft)
13.06.2012 12:00 15,5 C 74 % 1012,4 hPa 0,0 l/m W-SW 0,33 h 639 W/m 23,7 km/h (4 Bft)
13.06.2012 13:00 15,3 C 73 % 1012,5 hPa 0,0 l/m W 0,17 h 398 W/m 18,5 km/h (3 Bft)
13.06.2012 14:00 14,9 C 72 % 1012,7 hPa 0,0 l/m W 0,17 h 411 W/m 24,1 km/h (4 Bft)
13.06.2012 15:00 15,8 C 72 % 1012,8 hPa 0,0 l/m W 0,67 h 635 W/m 21,8 km/h (4 Bft)
13.06.2012 16:00 16,2 C 66 % 1013,0 hPa 0,0 l/m W-NW 0,50 h 462 W/m 25,6 km/h (4 Bft)
13.06.2012 17:00 15,0 C 74 % 1013,4 hPa 0,0 l/m W 0,42 h 431 W/m 20,3 km/h (4 Bft)
13.06.2012 18:00 15,2 C 70 % 1013,7 hPa 0,0 l/m W 0,08 h 116 W/m 18,1 km/h (3 Bft)
13.06.2012 19:00 12,4 C 82 % 1014,7 hPa 1,6 l/m W-NW 0,00 h 23 W/m 14,2 km/h (3 Bft)
13.06.2012 20:00 11,1 C 93 % 1015,4 hPa 0,2 l/m W 0,17 h 32 W/m 7,4 km/h (2 Bft)
13.06.2012 21:00 10,6 C 94 % 1016,2 hPa 0,0 l/m W-SW 0,00 h 7 W/m 9,1 km/h (2 Bft)
13.06.2012 22:00 10,4 C 95 % 1016,9 hPa 0,0 l/m W-SW 0,00 h 0 W/m 8,2 km/h (2 Bft)
13.06.2012 23:00 10,8 C 95 % 1017,1 hPa 0,0 l/m SW 0,00 h 0 W/m 10,8 km/h (2 Bft)
14.06.2012 00:00 10,4 C 96 % 1017,1 hPa 0,0 l/m W-SW 0,00 h 0 W/m 9,8 km/h (2 Bft)
14.06.2012 01:00 10,1 C 96 % 1017,4 hPa 0,0 l/m SW 0,00 h 0 W/m 7,0 km/h (2 Bft)
14.06.2012 02:00 9,4 C 97 % 1017,4 hPa 0,0 l/m N 0,00 h 0 W/m 1,1 km/h (0 Bft)
14.06.2012 03:00 9,3 C 97 % 1017,4 hPa 0,0 l/m N 0,00 h 0 W/m 0,3 km/h (0 Bft)
14.06.2012 04:00 9,1 C 97 % 1017,2 hPa 0,0 l/m N 0,00 h 0 W/m 0,4 km/h (0 Bft)
14.06.2012 05:00 8,3 C 98 % 1017,2 hPa 0,0 l/m N 0,00 h 9 W/m 0,0 km/h (0 Bft)
14.06.2012 06:00 8,3 C 99 % 1017,4 hPa 0,0 l/m N 0,00 h 55 W/m 0,7 km/h (0 Bft)
14.06.2012 07:00 9,9 C 98 % 1017,6 hPa 0,0 l/m SW 0,17 h 126 W/m 4,1 km/h (1 Bft)
14.06.2012 08:00 11,4 C 94 % 1017,8 hPa 0,0 l/m SW 0,50 h 337 W/m 3,7 km/h (1 Bft)
14.06.2012 09:00 13,4 C 84 % 1017,5 hPa 0,0 l/m S-SO 0,75 h 552 W/m 7,6 km/h (2 Bft)
14.06.2012 10:00 14,5 C 77 % 1017,5 hPa 0,0 l/m SW 0,67 h 528 W/m 7,4 km/h (2 Bft)
14.06.2012 11:00 15,2 C 70 % 1017,3 hPa 0,0 l/m NW 0,50 h 507 W/m 7,4 km/h (2 Bft)
14.06.2012 12:00 16,7 C 65 % 1017,1 hPa 0,0 l/m N-NW 0,58 h 675 W/m 7,4 km/h (2 Bft)
14.06.2012 13:00 17,8 C 59 % 1016,7 hPa 0,0 l/m N-NO 0,50 h 603 W/m 8,4 km/h (2 Bft)
14.06.2012 14:00 17,9 C 57 % 1016,4 hPa 0,0 l/m N-NO 0,58 h 761 W/m 7,0 km/h (2 Bft)
14.06.2012 15:00 19,5 C 53 % 1016,0 hPa 0,0 l/m N 0,83 h 788 W/m 8,5 km/h (2 Bft)
14.06.2012 16:00 20,7 C 46 % 1015,8 hPa 0,0 l/m SW 1,00 h 769 W/m 11,0 km/h (2 Bft)
14.06.2012 17:00 20,8 C 43 % 1015,3 hPa 0,0 l/m SW 1,00 h 598 W/m 10,5 km/h (2 Bft)
14.06.2012 18:00 20,3 C 45 % 1015,2 hPa 0,0 l/m W-SW 0,75 h 357 W/m 8,2 km/h (2 Bft)
14.06.2012 19:00 19,8 C 47 % 1015,1 hPa 0,0 l/m W-SW 0,92 h 241 W/m 5,2 km/h (1 Bft)
14.06.2012 20:00 17,8 C 56 % 1015,4 hPa 0,0 l/m NO 0,33 h 47 W/m 4,4 km/h (1 Bft)
14.06.2012 21:00 15,3 C 71 % 1015,7 hPa 0,0 l/m NO 0,00 h 8 W/m 2,9 km/h (1 Bft)
14.06.2012 22:00 13,2 C 80 % 1016,1 hPa 0,0 l/m N 0,00 h 0 W/m 0,7 km/h (0 Bft)
14.06.2012 23:00 12,0 C 85 % 1016,3 hPa 0,0 l/m N 0,00 h 0 W/m 0,7 km/h (0 Bft)
15.06.2012 00:00 11,0 C 89 % 1016,4 hPa 0,0 l/m N 0,00 h 0 W/m 0,4 km/h (0 Bft)
15.06.2012 01:00 10,2 C 92 % 1016,5 hPa 0,0 l/m N 0,00 h 0 W/m 0,1 km/h (0 Bft)
15.06.2012 02:00 9,7 C 94 % 1016,5 hPa 0,0 l/m N 0,00 h 0 W/m 0,0 km/h (0 Bft)
15.06.2012 03:00 9,2 C 95 % 1016,4 hPa 0,0 l/m N 0,00 h 0 W/m 0,4 km/h (0 Bft)
15.06.2012 04:00 8,7 C 96 % 1016,2 hPa 0,0 l/m N 0,00 h 0 W/m 0,0 km/h (0 Bft)
15.06.2012 05:00 8,3 C 96 % 1016,4 hPa 0,0 l/m N 0,00 h 10 W/m 0,0 km/h (0 Bft)
15.06.2012 06:00 9,1 C 96 % 1016,5 hPa 0,0 l/m N 0,50 h 86 W/m 0,0 km/h (0 Bft)
15.06.2012 07:00 11,9 C 89 % 1016,5 hPa 0,0 l/m N 0,83 h 215 W/m 0,0 km/h (0 Bft)
15.06.2012 08:00 14,7 C 81 % 1016,4 hPa 0,0 l/m N 0,50 h 274 W/m 0,0 km/h (0 Bft)
15.06.2012 09:00 17,4 C 72 % 1016,2 hPa 0,0 l/m S-SW 0,92 h 535 W/m 7,7 km/h (2 Bft)
15.06.2012 10:00 20,1 C 63 % 1016,1 hPa 0,0 l/m S-SW 1,00 h 690 W/m 13,7 km/h (3 Bft)
15.06.2012 11:00 22,5 C 56 % 1015,7 hPa 0,0 l/m S-SW 1,00 h 815 W/m 11,8 km/h (2 Bft)
15.06.2012 12:00 24,3 C 47 % 1015,4 hPa 0,0 l/m SW 1,00 h 867 W/m 13,0 km/h (3 Bft)
15.06.2012 13:00 25,3 C 41 % 1015,2 hPa 0,0 l/m SW 1,00 h 847 W/m 16,1 km/h (3 Bft)
15.06.2012 14:00 26,1 C 39 % 1014,8 hPa 0,0 l/m W-SW 1,00 h 842 W/m 14,8 km/h (3 Bft)
15.06.2012 15:00 26,9 C 36 % 1014,5 hPa 0,0 l/m W-SW 1,00 h 818 W/m 16,1 km/h (3 Bft)
15.06.2012 16:00 27,2 C 34 % 1014,4 hPa 0,0 l/m W-SW 1,00 h 720 W/m 15,2 km/h (3 Bft)
15.06.2012 17:00 27,0 C 36 % 1014,2 hPa 0,0 l/m W-NW 1,00 h 579 W/m 12,9 km/h (3 Bft)
15.06.2012 18:00 26,2 C 38 % 1014,1 hPa 0,0 l/m W-SW 0,92 h 380 W/m 14,8 km/h (3 Bft)
15.06.2012 19:00 25,2 C 45 % 1013,9 hPa 0,0 l/m W-SW 1,00 h 228 W/m 4,5 km/h (1 Bft)
15.06.2012 20:00 22,8 C 59 % 1014,2 hPa 0,0 l/m N 0,25 h 50 W/m 0,3 km/h (0 Bft)
15.06.2012 21:00 20,0 C 72 % 1014,6 hPa 0,0 l/m N 0,08 h 7 W/m 0,1 km/h (0 Bft)
15.06.2012 22:00 17,9 C 79 % 1015,0 hPa 0,0 l/m N 0,00 h 0 W/m 0,3 km/h (0 Bft)
15.06.2012 23:00 16,7 C 82 % 1015,1 hPa 0,0 l/m N 0,00 h 0 W/m 0,4 km/h (0 Bft)
16.06.2012 00:00 15,8 C 87 % 1015,2 hPa 0,0 l/m N 0,00 h 0 W/m 0,3 km/h (0 Bft)
16.06.2012 01:00 15,4 C 89 % 1015,2 hPa 0,0 l/m W 0,00 h 0 W/m 2,0 km/h (1 Bft)
16.06.2012 02:00 15,6 C 88 % 1015,4 hPa 0,0 l/m W 0,00 h 0 W/m 3,2 km/h (1 Bft)
16.06.2012 03:00 14,1 C 94 % 1015,4 hPa 0,0 l/m N 0,00 h 0 W/m 0,4 km/h (0 Bft)
16.06.2012 04:00 13,3 C 95 % 1015,4 hPa 0,0 l/m N 0,00 h 0 W/m 0,4 km/h (0 Bft)
16.06.2012 05:00 12,8 C 96 % 1015,8 hPa 0,0 l/m N 0,00 h 11 W/m 0,0 km/h (0 Bft)
16.06.2012 06:00 13,4 C 96 % 1015,9 hPa 0,0 l/m N 0,08 h 74 W/m 0,0 km/h (0 Bft)
16.06.2012 07:00 16,0 C 90 % 1015,8 hPa 0,0 l/m N 1,00 h 225 W/m 0,0 km/h (0 Bft)
16.06.2012 08:00 19,4 C 77 % 1015,7 hPa 0,0 l/m S-SW 1,00 h 396 W/m 7,4 km/h (2 Bft)
16.06.2012 09:00 21,8 C 65 % 1015,8 hPa 0,0 l/m SW 1,00 h 564 W/m 13,7 km/h (3 Bft)
16.06.2012 10:00 23,6 C 59 % 1015,1 hPa 0,0 l/m S-SW 1,00 h 715 W/m 13,6 km/h (3 Bft)
16.06.2012 11:00 25,2 C 54 % 1014,9 hPa 0,0 l/m W-SW 1,00 h 830 W/m 8,4 km/h (2 Bft)
16.06.2012 12:00 26,6 C 48 % 1014,5 hPa 0,0 l/m SW 1,00 h 903 W/m 9,9 km/h (2 Bft)
16.06.2012 13:00 27,9 C 45 % 1013,7 hPa 0,0 l/m SW 1,00 h 933 W/m 9,0 km/h (2 Bft)
16.06.2012 14:00 29,3 C 39 % 1012,9 hPa 0,0 l/m SW 1,00 h 913 W/m 9,8 km/h (2 Bft)
16.06.2012 15:00 30,2 C 37 % 1012,6 hPa 0,0 l/m W-SW 1,00 h 840 W/m 11,8 km/h (2 Bft)
16.06.2012 16:00 30,4 C 38 % 1012,3 hPa 0,0 l/m W-SW 1,00 h 727 W/m 13,8 km/h (3 Bft)
16.06.2012 17:00 29,7 C 39 % 1012,2 hPa 0,0 l/m W 1,00 h 583 W/m 15,4 km/h (3 Bft)
16.06.2012 18:00 28,6 C 40 % 1012,3 hPa 0,0 l/m W 1,00 h 416 W/m 13,3 km/h (3 Bft)
16.06.2012 19:00 27,4 C 41 % 1012,6 hPa 0,0 l/m W 0,92 h 211 W/m 12,3 km/h (3 Bft)
16.06.2012 20:00 25,2 C 50 % 1013,3 hPa 0,0 l/m W 0,17 h 47 W/m 5,9 km/h (2 Bft)
16.06.2012 21:00 22,2 C 66 % 1014,0 hPa 0,0 l/m N 0,17 h 12 W/m 0,1 km/h (0 Bft)
16.06.2012 22:00 21,5 C 64 % 1015,3 hPa 0,0 l/m N 0,00 h 0 W/m 12,6 km/h (3 Bft)
16.06.2012 23:00 19,4 C 74 % 1016,2 hPa 0,0 l/m N-NO 0,00 h 0 W/m 14,4 km/h (3 Bft)
17.06.2012 00:00 16,5 C 79 % 1017,1 hPa 0,0 l/m N 0,00 h 0 W/m 16,0 km/h (3 Bft)
17.06.2012 01:00 14,4 C 81 % 1017,9 hPa 0,0 l/m N 0,00 h 0 W/m 13,0 km/h (3 Bft)
17.06.2012 02:00 13,5 C 83 % 1018,5 hPa 0,0 l/m N 0,00 h 0 W/m 7,2 km/h (2 Bft)
17.06.2012 03:00 13,0 C 86 % 1018,8 hPa 0,0 l/m N 0,00 h 0 W/m 1,6 km/h (1 Bft)
17.06.2012 04:00 12,4 C 90 % 1018,8 hPa 0,0 l/m N 0,00 h 0 W/m 1,9 km/h (1 Bft)
17.06.2012 05:00 12,2 C 91 % 1018,8 hPa 0,0 l/m N 0,00 h 10 W/m 0,9 km/h (0 Bft)
17.06.2012 06:00 12,9 C 89 % 1018,9 hPa 0,0 l/m N-NW 0,00 h 66 W/m 2,0 km/h (1 Bft)
17.06.2012 07:00 14,4 C 85 % 1019,4 hPa 0,0 l/m N 0,67 h 185 W/m 10,9 km/h (2 Bft)
17.06.2012 08:00 16,1 C 80 % 1019,9 hPa 0,0 l/m N-NO 0,67 h 328 W/m 9,1 km/h (2 Bft)
17.06.2012 09:00 17,8 C 75 % 1020,3 hPa 0,0 l/m N-NO 0,75 h 393 W/m 8,9 km/h (2 Bft)
17.06.2012 10:00 18,9 C 73 % 1020,3 hPa 0,0 l/m O 0,25 h 391 W/m 11,0 km/h (2 Bft)
17.06.2012 11:00 20,2 C 69 % 1020,2 hPa 0,0 l/m O-NO 0,83 h 726 W/m 10,7 km/h (2 Bft)
17.06.2012 12:00 21,9 C 62 % 1019,9 hPa 0,0 l/m O 0,83 h 852 W/m 13,2 km/h (3 Bft)
17.06.2012 13:00 22,8 C 58 % 1019,5 hPa 0,0 l/m NO 0,92 h 898 W/m 10,5 km/h (2 Bft)
17.06.2012 14:00 24,0 C 55 % 1019,0 hPa 0,0 l/m NO 1,00 h 894 W/m 10,1 km/h (2 Bft)
17.06.2012 15:00 24,9 C 54 % 1018,4 hPa 0,0 l/m O-SO 0,92 h 828 W/m 13,7 km/h (3 Bft)
17.06.2012 16:00 25,5 C 54 % 1017,8 hPa 0,0 l/m O-SO 0,83 h 648 W/m 14,8 km/h (3 Bft)
17.06.2012 17:00 25,3 C 55 % 1017,2 hPa 0,0 l/m O-SO 0,92 h 537 W/m 11,7 km/h (2 Bft)
17.06.2012 18:00 25,0 C 56 % 1016,7 hPa 0,0 l/m O 0,75 h 337 W/m 13,8 km/h (3 Bft)
17.06.2012 19:00 23,8 C 62 % 1016,5 hPa 0,0 l/m O-SO 0,83 h 189 W/m 16,1 km/h (3 Bft)
17.06.2012 20:00 22,4 C 68 % 1016,4 hPa 0,0 l/m O 0,33 h 53 W/m 10,5 km/h (2 Bft)
17.06.2012 21:00 21,2 C 73 % 1016,4 hPa 0,0 l/m O-NO 0,00 h 7 W/m 6,0 km/h (2 Bft)
17.06.2012 22:00 19,4 C 80 % 1016,5 hPa 0,0 l/m N 0,00 h 0 W/m 2,5 km/h (1 Bft)
17.06.2012 23:00 17,9 C 86 % 1016,2 hPa 0,0 l/m NO 0,00 h 0 W/m 3,2 km/h (1 Bft)
Min-Datum _ 14.06.12 15.06.12 12.06.12 - - - - 11.06.12
_ Min-Zeit 06:05 16:30 05:20 - - - - 00:00
Minimum _ 7,8 C 31 % 1000,1 hPa - - - - 0,0 km/h (0 Bft)
Max-Datum _ 16.06.12 14.06.12 17.06.12 12.06.12 - 11.06.12 13.06.12 11.06.12
_ Max-Zeit 16:35 06:20 09:30 11:05 - 10:25 15:05 13:05
Maximum _ 30,6 C 99 % 1020,5 hPa 3,8 l/m - 0,08 h 1146 W/m 37,0 km/h
SW (5 Bft)
Durchschnitt _ 15,8 C 79 % 1012,0 hPa #25,0 l/m W-SW #54:40 h 345 W/m 8,8 km/h (2 Bft)